createdAt,value
2022-11-16T00:02:19.585Z,99407.19
2022-11-16T00:04:48.480Z,99399.41
2022-11-16T00:07:17.424Z,99398.53
2022-11-16T00:09:47.042Z,99400.13
2022-11-16T00:12:13.654Z,99394.88
2022-11-16T00:14:42.410Z,99395.16
2022-11-16T00:17:08.933Z,99393.72
2022-11-16T00:19:35.495Z,99388.84
2022-11-16T00:22:04.594Z,99382.06
2022-11-16T00:24:31.138Z,99386.94
2022-11-16T00:26:57.852Z,99391.31
2022-11-16T00:29:29.780Z,99390.28
2022-11-16T00:31:59.490Z,99380.19
2022-11-16T00:34:26.119Z,99379.25
2022-11-16T00:36:52.681Z,99373.47
2022-11-16T00:39:21.855Z,99367.50
2022-11-16T00:41:50.926Z,99367.44
2022-11-16T00:44:18.516Z,99354.56
2022-11-16T00:46:47.398Z,99352.50
2022-11-16T00:49:16.227Z,99357.91
2022-11-16T00:51:45.071Z,99351.25
2022-11-16T00:54:11.749Z,99344.50
2022-11-16T00:56:43.177Z,99341.91
2022-11-16T00:59:12.203Z,99344.34
2022-11-16T01:01:38.729Z,99343.28
2022-11-16T01:04:05.538Z,99340.78
2022-11-16T01:06:32.102Z,99338.44
2022-11-16T01:08:58.672Z,99339.44
2022-11-16T01:11:43.792Z,99333.53
2022-11-16T01:14:10.505Z,99336.22
2022-11-16T01:16:37.592Z,99327.44
2022-11-16T01:19:05.048Z,99321.50
2022-11-16T01:21:31.649Z,99310.47
2022-11-16T01:23:58.216Z,99306.06
2022-11-16T01:26:25.071Z,99305.84
2022-11-16T01:28:54.343Z,99301.66
2022-11-16T01:31:21.324Z,99307.69
2022-11-16T01:33:50.450Z,99301.72
2022-11-16T01:36:17.690Z,99300.16
2022-11-16T01:38:46.027Z,99293.41
2022-11-16T01:41:22.160Z,99283.91
2022-11-16T01:43:55.303Z,99283.03
2022-11-16T01:46:22.364Z,99278.94
2022-11-16T01:48:57.739Z,99278.84
2022-11-16T01:51:27.004Z,99278.09
2022-11-16T01:53:54.018Z,99272.91
2022-11-16T01:56:21.856Z,99266.88
2022-11-16T01:58:49.640Z,99269.25
2022-11-16T02:01:16.273Z,99265.06
2022-11-16T02:03:43.041Z,99253.94
2022-11-16T02:06:18.517Z,99257.31
2022-11-16T02:09:20.296Z,99252.06
2022-11-16T02:12:05.471Z,99252.25
2022-11-16T02:14:32.005Z,99244.78
2022-11-16T02:17:05.369Z,99245.75
2022-11-16T02:19:55.675Z,99237.97
2022-11-16T02:22:37.271Z,99237.22
2022-11-16T02:25:17.398Z,99231.25
2022-11-16T02:28:02.433Z,99232.03
2022-11-16T02:30:31.457Z,99228.53
2022-11-16T02:33:10.681Z,99222.72
2022-11-16T02:35:42.435Z,99214.97
2022-11-16T02:38:19.006Z,99215.88
2022-11-16T02:40:55.013Z,99216.84
2022-11-16T02:43:29.775Z,99213.03
2022-11-16T02:46:02.351Z,99208.06
2022-11-16T02:48:38.497Z,99208.97
2022-11-16T02:51:06.790Z,99207.91
2022-11-16T02:53:39.212Z,99206.31
2022-11-16T02:56:08.997Z,99201.31
2022-11-16T02:58:40.052Z,99190.31
2022-11-16T03:01:12.722Z,99190.31
2022-11-16T03:03:57.963Z,99193.78
2022-11-16T03:06:41.577Z,99184.41
2022-11-16T03:09:12.575Z,99179.31
2022-11-16T03:12:02.875Z,99190.06
2022-11-16T03:14:48.957Z,99185.25
2022-11-16T03:17:27.490Z,99181.63
2022-11-16T03:20:12.109Z,99182.50
2022-11-16T03:22:45.908Z,99178.31
2022-11-16T03:25:17.981Z,99175.84
2022-11-16T03:27:54.097Z,99164.88
2022-11-16T03:30:25.965Z,99167.25
2022-11-16T03:33:23.311Z,99163.88
2022-11-16T03:36:00.403Z,99165.75
2022-11-16T03:38:30.814Z,99168.50
2022-11-16T03:41:02.353Z,99172.03
2022-11-16T03:43:30.979Z,99162.00
2022-11-16T03:45:58.212Z,99150.06
2022-11-16T03:48:25.340Z,99141.75
2022-11-16T03:50:52.163Z,99145.13
2022-11-16T03:53:23.450Z,99143.91
2022-11-16T03:55:53.251Z,99143.25
2022-11-16T03:58:25.277Z,99142.16
2022-11-16T04:00:51.999Z,99138.00
2022-11-16T04:03:18.551Z,99138.22
2022-11-16T04:06:06.172Z,99133.13
2022-11-16T04:08:54.089Z,99136.72
2022-11-16T04:11:41.047Z,99124.88
2022-11-16T04:14:33.322Z,99122.19
2022-11-16T04:17:18.113Z,99112.53
2022-11-16T04:20:03.074Z,99113.41
2022-11-16T04:22:54.776Z,99111.84
2022-11-16T04:25:28.894Z,99114.41
2022-11-16T04:28:13.520Z,99113.56
2022-11-16T04:31:04.642Z,99110.91
2022-11-16T04:33:50.256Z,99106.53
2022-11-16T04:36:35.590Z,99103.31
2022-11-16T04:39:02.972Z,99106.53
2022-11-16T04:41:52.104Z,99108.22
2022-11-16T04:44:19.446Z,99104.06
2022-11-16T04:47:04.843Z,99101.25
2022-11-16T04:49:34.084Z,99100.66
2022-11-16T04:52:00.706Z,99093.94
2022-11-16T04:54:29.735Z,99095.47
2022-11-16T04:56:56.244Z,99092.03
2022-11-16T04:59:25.311Z,99092.09
2022-11-16T05:02:12.125Z,99094.69
2022-11-16T05:04:43.373Z,99093.84
2022-11-16T05:07:12.836Z,99085.38
2022-11-16T05:09:44.806Z,99085.28
2022-11-16T05:12:15.558Z,99090.31
2022-11-16T05:14:44.846Z,99095.34
2022-11-16T05:17:12.425Z,99085.88
2022-11-16T05:19:57.827Z,99090.31
2022-11-16T05:22:25.315Z,99090.41
2022-11-16T05:24:54.098Z,99088.63
2022-11-16T05:27:25.943Z,99083.63
2022-11-16T05:29:55.202Z,99078.59
2022-11-16T05:32:25.280Z,99073.44
2022-11-16T05:34:51.882Z,99075.09
2022-11-16T05:37:21.070Z,99069.16
2022-11-16T05:39:47.852Z,99062.38
2022-11-16T05:42:14.398Z,99063.22
2022-11-16T05:44:40.893Z,99058.94
2022-11-16T05:47:07.393Z,99056.31
2022-11-16T05:49:37.243Z,99053.81
2022-11-16T05:52:03.953Z,99052.81
2022-11-16T05:54:34.067Z,99051.09
2022-11-16T05:57:00.597Z,99044.28
2022-11-16T05:59:31.870Z,99048.50
2022-11-16T06:01:58.516Z,99039.72
2022-11-16T06:04:25.152Z,99040.75
2022-11-16T06:06:52.326Z,99036.56
2022-11-16T06:09:19.212Z,99044.38
2022-11-16T06:11:48.021Z,99046.22
2022-11-16T06:14:16.816Z,99047.78
2022-11-16T06:16:45.675Z,99044.16
2022-11-16T06:19:12.224Z,99053.66
2022-11-16T06:21:38.764Z,99044.34
2022-11-16T06:24:09.464Z,99056.31
2022-11-16T06:26:38.608Z,99055.13
2022-11-16T06:29:04.988Z,99043.41
2022-11-16T06:31:33.875Z,99044.03
2022-11-16T06:34:05.178Z,99041.94
2022-11-16T06:36:31.697Z,99047.25
2022-11-16T06:39:03.502Z,99041.84
2022-11-16T06:41:30.047Z,99032.47
2022-11-16T06:43:56.583Z,99032.56
2022-11-16T06:46:24.637Z,99024.88
2022-11-16T06:48:51.433Z,99022.06
2022-11-16T06:51:18.163Z,99026.41
2022-11-16T06:53:47.116Z,99023.84
2022-11-16T06:56:15.548Z,99023.00
2022-11-16T06:58:43.014Z,99020.59
2022-11-16T07:01:11.431Z,99015.41
2022-11-16T07:03:40.730Z,99017.19
2022-11-16T07:06:12.956Z,99018.91
2022-11-16T07:08:40.354Z,99013.03
2022-11-16T07:11:08.471Z,99015.47
2022-11-16T07:13:38.706Z,99013.03
2022-11-16T07:19:36.779Z,99005.19
2022-11-16T07:22:04.297Z,99013.63
2022-11-16T07:24:30.842Z,99001.03
2022-11-16T07:27:00.390Z,99002.69
2022-11-16T07:29:26.891Z,99001.59
2022-11-16T07:31:55.923Z,99005.22
2022-11-16T07:34:27.264Z,99003.63
2022-11-16T07:36:56.062Z,99002.72
2022-11-16T07:39:24.811Z,98997.59
2022-11-16T07:41:53.559Z,98994.22
2022-11-16T07:44:22.636Z,98988.31
2022-11-16T07:47:08.679Z,98993.38
2022-11-16T07:49:35.224Z,98992.28
2022-11-16T07:52:37.896Z,98991.16
2022-11-16T07:55:13.748Z,98982.81
2022-11-16T07:57:43.602Z,98986.41
2022-11-16T08:00:19.566Z,98977.88
2022-11-16T08:05:42.437Z,98962.59
2022-11-16T08:08:23.200Z,98970.94
2022-11-16T08:10:49.696Z,98964.28
2022-11-16T08:16:56.810Z,98959.91
2022-11-16T08:19:28.312Z,98976.00
2022-11-16T08:21:54.792Z,98976.94
2022-11-16T08:24:21.431Z,98974.59
2022-11-16T08:26:54.178Z,98959.34
2022-11-16T08:29:23.201Z,98964.47
2022-11-16T08:31:49.691Z,98967.06
2022-11-16T08:34:21.365Z,98965.31
2022-11-16T08:36:57.709Z,98964.47
2022-11-16T08:39:26.725Z,98962.69
2022-11-16T08:41:59.673Z,98966.22
2022-11-16T08:44:28.470Z,98969.59
2022-11-16T08:46:55.013Z,98965.25
2022-11-16T08:49:29.222Z,98955.88
2022-11-16T08:51:58.412Z,98957.66
2022-11-16T08:54:27.427Z,98958.53
2022-11-16T08:56:56.509Z,98958.44
2022-11-16T08:59:23.403Z,98958.28
2022-11-16T09:01:53.107Z,98964.13
2022-11-16T09:04:19.767Z,98956.66
2022-11-16T09:06:46.289Z,98950.69
2022-11-16T09:09:12.854Z,98945.56
2022-11-16T09:11:46.710Z,98951.53
2022-11-16T09:14:15.795Z,98942.19
2022-11-16T09:16:42.312Z,98950.81
2022-11-16T09:19:14.403Z,98944.06
2022-11-16T09:21:45.615Z,98946.69
2022-11-16T09:24:14.463Z,98947.50
2022-11-16T09:26:43.272Z,98939.81
2022-11-16T09:29:16.051Z,98937.25
2022-11-16T09:31:42.558Z,98940.59
2022-11-16T09:34:12.224Z,98932.06
2022-11-16T09:36:44.323Z,98930.31
2022-11-16T09:39:41.375Z,98924.28
2022-11-16T09:42:14.473Z,98924.38
2022-11-16T09:48:06.088Z,98926.97
2022-11-16T09:50:56.045Z,98927.06
2022-11-16T09:54:00.775Z,98918.56
2022-11-16T09:56:37.377Z,98910.00
2022-11-16T09:59:20.394Z,98901.31
2022-11-16T10:01:52.777Z,98909.72
2022-11-16T10:04:47.157Z,98899.38
2022-11-16T10:07:20.549Z,98886.72
2022-11-16T10:09:47.875Z,98879.06
2022-11-16T10:12:24.599Z,98887.44
2022-11-16T10:15:04.646Z,98885.59
2022-11-16T10:18:04.762Z,98885.75
2022-11-16T10:20:52.828Z,98874.75
2022-11-16T10:23:53.213Z,98877.41
2022-11-16T10:26:53.734Z,98867.19
2022-11-16T10:29:34.623Z,98861.09
2022-11-16T10:39:40.332Z,98862.13
2022-11-16T10:42:21.216Z,98849.22
2022-11-16T10:44:55.219Z,98850.13
2022-11-16T10:47:28.125Z,98849.28
2022-11-16T10:50:27.282Z,98850.16
2022-11-16T10:52:56.176Z,98837.31
2022-11-16T10:55:24.315Z,98837.31
2022-11-16T10:58:07.770Z,98827.91
2022-11-16T11:00:37.334Z,98824.53
2022-11-16T11:03:04.157Z,98817.69
2022-11-16T11:05:31.259Z,98815.97
2022-11-16T11:08:10.835Z,98815.88
2022-11-16T11:10:38.981Z,98814.22
2022-11-16T11:13:11.317Z,98810.78
2022-11-16T11:15:48.062Z,98798.91
2022-11-16T11:18:20.582Z,98804.94
2022-11-16T11:21:06.635Z,98803.19
2022-11-16T11:23:46.553Z,98795.50
2022-11-16T11:26:41.845Z,98798.97
2022-11-16T11:29:23.422Z,98795.56
2022-11-16T11:32:37.663Z,98793.00
2022-11-16T11:35:07.573Z,98787.84
2022-11-16T11:37:40.167Z,98787.84
2022-11-16T11:40:09.828Z,98781.81
2022-11-16T11:42:48.978Z,98775.81
2022-11-16T11:45:19.419Z,98770.72
2022-11-16T11:47:59.196Z,98768.19
2022-11-16T11:50:34.360Z,98769.91
2022-11-16T11:53:19.083Z,98768.19
2022-11-16T11:55:45.655Z,98763.09
2022-11-16T11:58:29.697Z,98757.13
2022-11-16T12:01:14.515Z,98763.97
2022-11-16T12:03:56.298Z,98766.50
2022-11-16T12:09:31.839Z,98762.25
2022-11-16T12:12:39.180Z,98757.13
2022-11-16T12:15:11.375Z,98763.16
2022-11-16T12:18:26.005Z,98763.13
2022-11-16T12:21:17.358Z,98754.59
2022-11-16T12:23:49.888Z,98753.72
2022-11-16T12:26:37.634Z,98757.09
2022-11-16T12:29:16.736Z,98755.41
2022-11-16T12:32:07.593Z,98747.72
2022-11-16T12:34:58.272Z,98742.59
2022-11-16T12:37:36.311Z,98751.94
2022-11-16T12:40:40.233Z,98754.47
2022-11-16T12:43:44.453Z,98749.41
2022-11-16T12:50:07.190Z,98726.31
2022-11-16T12:52:42.204Z,98739.13
2022-11-16T12:59:35.818Z,98725.38
2022-11-16T13:09:49.367Z,98729.69
2022-11-16T13:12:23.520Z,98725.44
2022-11-16T13:14:53.393Z,98728.00
2022-11-16T13:17:29.178Z,98734.00
2022-11-16T13:20:14.527Z,98725.28
2022-11-16T13:22:53.446Z,98732.16
2022-11-16T13:25:37.922Z,98733.94
2022-11-16T13:29:00.263Z,98713.44
2022-11-16T13:31:48.464Z,98733.94
2022-11-16T13:34:28.358Z,98731.44
2022-11-16T13:36:57.397Z,98726.34
2022-11-16T13:39:57.954Z,98715.19
2022-11-16T13:42:25.479Z,98715.19
2022-11-16T13:44:53.162Z,98715.19
2022-11-16T13:47:27.422Z,98721.19
2022-11-16T13:50:02.629Z,98715.16
2022-11-16T13:53:36.291Z,98719.44
2022-11-16T13:55:36.425Z,98714.31
2022-11-16T13:58:09.312Z,98718.63
2022-11-16T14:00:38.825Z,98704.13
2022-11-16T14:03:17.163Z,98708.38
2022-11-16T14:05:49.488Z,98707.53
2022-11-16T14:08:19.098Z,98710.00
2022-11-16T14:10:51.657Z,98700.69
2022-11-16T14:13:30.531Z,98703.25
2022-11-16T14:16:15.126Z,98701.50
2022-11-16T14:18:42.429Z,98698.84
2022-11-16T14:21:46.359Z,98701.31
2022-11-16T14:24:27.931Z,98696.19
2022-11-16T14:27:06.660Z,98700.44
2022-11-16T14:29:39.430Z,98687.78
2022-11-16T14:32:25.712Z,98683.53
2022-11-16T14:34:55.385Z,98687.81
2022-11-16T14:37:24.483Z,98694.53
2022-11-16T14:39:53.705Z,98692.69
2022-11-16T14:42:24.786Z,98687.72
2022-11-16T14:45:01.544Z,98693.63
2022-11-16T14:47:33.083Z,98684.28
2022-11-16T14:50:02.509Z,98685.16
2022-11-16T14:52:36.863Z,98677.38
2022-11-16T14:55:08.422Z,98675.69
2022-11-16T14:57:38.196Z,98676.59
2022-11-16T15:00:22.758Z,98664.69
2022-11-16T15:02:56.376Z,98667.22
2022-11-16T15:05:33.046Z,98671.50
2022-11-16T15:08:00.631Z,98668.94
2022-11-16T15:10:29.204Z,98660.44
2022-11-16T15:12:59.189Z,98662.91
2022-11-16T15:15:30.456Z,98670.56
2022-11-16T15:18:02.773Z,98672.31
2022-11-16T15:20:34.393Z,98667.16
2022-11-16T15:23:05.170Z,98655.38
2022-11-16T15:25:36.503Z,98658.63
2022-11-16T15:28:08.553Z,98663.75
2022-11-16T15:30:37.677Z,98657.00
2022-11-16T15:33:08.716Z,98654.44
2022-11-16T15:35:36.398Z,98659.44
2022-11-16T15:38:24.783Z,98662.84
2022-11-16T15:40:55.906Z,98652.50
2022-11-16T15:43:26.010Z,98656.81
2022-11-16T15:45:53.911Z,98654.28
2022-11-16T15:48:27.033Z,98656.00
2022-11-16T15:51:04.301Z,98657.81
2022-11-16T15:53:36.867Z,98659.50
2022-11-16T15:56:30.284Z,98655.25
2022-11-16T15:59:02.476Z,98649.31
2022-11-16T16:01:32.680Z,98643.34
2022-11-16T16:04:05.777Z,98646.75
2022-11-16T16:06:59.146Z,98639.06
2022-11-16T16:09:28.866Z,98642.50
2022-11-16T16:12:17.934Z,98636.50
2022-11-16T16:14:46.376Z,98640.84
2022-11-16T16:17:26.780Z,98643.31
2022-11-16T16:20:01.895Z,98642.53
2022-11-16T16:22:38.020Z,98643.22
2022-11-16T16:25:25.836Z,98646.69
2022-11-16T16:27:54.814Z,98646.78
2022-11-16T16:30:23.604Z,98637.44
2022-11-16T16:32:52.966Z,98639.13
2022-11-16T16:35:22.410Z,98643.28
2022-11-16T16:37:50.995Z,98648.38
2022-11-16T16:40:19.733Z,98641.66
2022-11-16T16:42:48.855Z,98644.13
2022-11-16T16:45:19.287Z,98646.75
2022-11-16T16:47:48.500Z,98644.19
2022-11-16T16:50:15.161Z,98645.13
2022-11-16T16:52:44.605Z,98633.97
2022-11-16T16:55:13.402Z,98631.41
2022-11-16T16:57:40.011Z,98628.81
2022-11-16T17:00:07.425Z,98633.91
2022-11-16T17:02:35.891Z,98640.75
2022-11-16T17:05:02.382Z,98636.50
2022-11-16T17:07:29.407Z,98627.19
2022-11-16T17:10:01.008Z,98624.63
2022-11-16T17:12:29.745Z,98629.75
2022-11-16T17:14:56.298Z,98620.38
2022-11-16T17:17:25.538Z,98619.41
2022-11-16T17:19:52.679Z,98618.63
2022-11-16T17:22:20.300Z,98616.13
2022-11-16T17:24:47.510Z,98607.56
2022-11-16T17:27:14.247Z,98617.81
2022-11-16T17:29:43.171Z,98619.50
2022-11-16T17:32:14.579Z,98610.09
2022-11-16T17:34:41.504Z,98615.16
2022-11-16T17:37:13.983Z,98615.09
2022-11-16T17:39:40.534Z,98606.56
2022-11-16T17:42:07.092Z,98624.44
2022-11-16T17:44:33.731Z,98615.03
2022-11-16T17:47:04.959Z,98620.97
2022-11-16T17:49:33.842Z,98628.66
2022-11-16T17:52:06.258Z,98624.38
2022-11-16T17:54:35.259Z,98619.28
2022-11-16T17:57:01.840Z,98618.41
2022-11-16T17:59:30.059Z,98618.41
2022-11-16T18:01:58.199Z,98618.47
2022-11-16T18:04:24.896Z,98612.56
2022-11-16T18:06:53.987Z,98610.03
2022-11-16T18:09:20.709Z,98614.19
2022-11-16T18:11:49.399Z,98610.84
2022-11-16T18:14:15.894Z,98621.00
2022-11-16T18:16:47.874Z,98612.47
2022-11-16T18:19:17.624Z,98607.38
2022-11-16T18:21:48.872Z,98598.09
2022-11-16T18:24:18.060Z,98604.00
2022-11-16T18:26:44.526Z,98595.53
2022-11-16T18:29:15.792Z,98598.03
2022-11-16T18:31:45.296Z,98595.41
2022-11-16T18:34:14.942Z,98600.56
2022-11-16T18:36:44.126Z,98607.47
2022-11-16T18:39:12.935Z,98603.19
2022-11-16T18:41:48.782Z,98600.66
2022-11-16T18:44:19.989Z,98597.28
2022-11-16T18:46:46.534Z,98598.16
2022-11-16T18:49:13.020Z,98593.81
2022-11-16T18:51:39.588Z,98590.47
2022-11-16T18:54:06.972Z,98595.59
2022-11-16T18:56:36.258Z,98596.44
2022-11-16T18:59:03.395Z,98602.31
2022-11-16T19:01:32.329Z,98591.25
2022-11-16T19:04:03.779Z,98586.97
2022-11-16T19:06:32.279Z,98599.75
2022-11-16T19:09:03.930Z,98597.16
2022-11-16T19:11:32.752Z,98593.75
2022-11-16T19:14:07.794Z,98592.00
2022-11-16T19:16:37.167Z,98592.06
2022-11-16T19:19:06.190Z,98582.75
2022-11-16T19:21:33.641Z,98584.44
2022-11-16T19:24:04.950Z,98587.84
2022-11-16T19:26:36.289Z,98575.09
2022-11-16T19:29:07.086Z,98578.53
2022-11-16T19:31:36.043Z,98575.97
2022-11-16T19:34:09.771Z,98566.50
2022-11-16T19:36:40.672Z,98571.63
2022-11-16T19:39:12.250Z,98574.09
2022-11-16T19:41:41.303Z,98570.69
2022-11-16T19:44:07.851Z,98570.75
2022-11-16T19:46:36.695Z,98575.78
2022-11-16T19:49:05.814Z,98581.72
2022-11-16T19:51:35.724Z,98573.22
2022-11-16T19:54:07.852Z,98572.41
2022-11-16T19:56:37.404Z,98566.41
2022-11-16T19:59:11.692Z,98568.09
2022-11-16T20:01:43.735Z,98569.88
2022-11-16T20:04:13.561Z,98572.44
2022-11-16T20:06:40.734Z,98564.72
2022-11-16T20:09:11.990Z,98569.00
2022-11-16T20:11:40.738Z,98571.59
2022-11-16T20:14:10.221Z,98583.53
2022-11-16T20:16:42.292Z,98589.50
2022-11-16T20:19:13.150Z,98588.59
2022-11-16T20:21:44.501Z,98575.81
2022-11-16T20:24:13.734Z,98571.56
2022-11-16T20:26:46.159Z,98586.13
2022-11-16T20:29:17.279Z,98579.38
2022-11-16T20:31:45.579Z,98575.94
2022-11-16T20:34:16.544Z,98571.59
2022-11-16T20:36:50.987Z,98571.69
2022-11-16T20:39:20.079Z,98569.09
2022-11-16T20:41:49.846Z,98571.56
2022-11-16T20:44:26.989Z,98574.94
2022-11-16T20:47:00.950Z,98568.19
2022-11-16T20:49:27.436Z,98564.84
2022-11-16T20:51:58.879Z,98568.25
2022-11-16T20:54:27.981Z,98574.25
2022-11-16T20:56:56.996Z,98570.00
2022-11-16T20:59:23.549Z,98564.88
2022-11-16T21:01:52.990Z,98569.13
2022-11-16T21:04:20.749Z,98567.41
2022-11-16T21:06:47.288Z,98561.44
2022-11-16T21:09:22.502Z,98563.16
2022-11-16T21:12:08.522Z,98558.88
2022-11-16T21:14:35.146Z,98554.53
2022-11-16T21:17:02.161Z,98556.25
2022-11-16T21:19:31.233Z,98551.13
2022-11-16T21:21:59.972Z,98534.06
2022-11-16T21:24:28.430Z,98543.44
2022-11-16T21:26:54.981Z,98539.16
2022-11-16T21:29:26.088Z,98537.47
2022-11-16T21:31:52.634Z,98538.25
2022-11-16T21:34:23.591Z,98545.94
2022-11-16T21:36:52.312Z,98535.75
2022-11-16T21:39:21.478Z,98546.91
2022-11-16T21:41:47.958Z,98532.41
2022-11-16T21:44:14.464Z,98522.94
2022-11-16T21:46:45.511Z,98523.81
2022-11-16T21:49:14.291Z,98515.28
2022-11-16T21:51:43.265Z,98511.00
2022-11-16T21:54:10.199Z,98507.56
2022-11-16T21:56:36.782Z,98503.25
2022-11-16T21:59:03.320Z,98498.16
2022-11-16T22:01:49.812Z,98499.91
2022-11-16T22:04:34.680Z,98510.22
2022-11-16T22:07:19.628Z,98513.59
2022-11-16T22:09:50.960Z,98506.75
2022-11-16T22:12:19.906Z,98501.66
2022-11-16T22:14:46.701Z,98493.94
2022-11-16T22:17:15.857Z,98495.66
2022-11-16T22:19:42.210Z,98505.06
2022-11-16T22:22:11.118Z,98517.00
2022-11-16T22:24:37.865Z,98533.25
2022-11-16T22:27:04.470Z,98546.06
2022-11-16T22:29:33.201Z,98538.38
2022-11-16T22:31:59.777Z,98530.66
2022-11-16T22:34:26.316Z,98527.25
2022-11-16T22:36:55.284Z,98527.22
2022-11-16T22:39:21.826Z,98515.31
2022-11-16T22:41:50.742Z,98523.84
2022-11-16T22:44:17.247Z,98526.41
2022-11-16T22:46:46.412Z,98534.94
2022-11-16T22:49:15.161Z,98531.53
2022-11-16T22:51:44.199Z,98519.56
2022-11-16T22:54:11.627Z,98525.53
2022-11-16T22:56:40.861Z,98528.09
2022-11-16T22:59:09.782Z,98524.69
2022-11-16T23:01:40.130Z,98531.53
2022-11-16T23:04:11.563Z,98526.41
2022-11-16T23:06:38.205Z,98523.00
2022-11-16T23:09:05.025Z,98527.25
2022-11-16T23:11:52.810Z,98522.13
2022-11-16T23:14:40.206Z,98515.28
2022-11-16T23:17:06.731Z,98512.75
2022-11-16T23:19:54.866Z,98501.66
2022-11-16T23:22:40.810Z,98501.63
2022-11-16T23:25:29.293Z,98516.16
2022-11-16T23:28:03.302Z,98512.72
2022-11-16T23:30:29.999Z,98509.31
2022-11-16T23:33:01.250Z,98513.59
2022-11-16T23:35:27.778Z,98511.88
2022-11-16T23:37:57.968Z,98508.44
2022-11-16T23:40:26.949Z,98515.28
2022-11-16T23:43:14.364Z,98523.84
2022-11-16T23:45:44.408Z,98514.44
2022-11-16T23:48:18.607Z,98515.28
2022-11-16T23:50:49.222Z,98510.16
2022-11-16T23:53:18.288Z,98517.00
2022-11-16T23:55:47.559Z,98511.88
2022-11-16T23:58:15.141Z,98504.19
